Time;durP1;ratioP1;P1;durP2;ratioP2;P2;SDS_P1;SDS_P2;PMS_P1;PMS_P2;Temp;Humidity;BMP_temperature;BMP_pressure;BME280_temperature;BME280_humidity;BME280_pressure;Samples;Min_cycle;Max_cycle;Signal;HPM_P1;HPM_P2
2024/01/10 00:01:13;;;;;;;10.65;9.60;;;3.40;99.90;;;;;;5017070;28;20230;-75
2024/01/10 00:03:40;;;;;;;10.32;8.95;;;3.40;99.90;;;;;;5019482;28;20233;-75
2024/01/10 00:06:07;;;;;;;10.45;9.43;;;3.40;99.90;;;;;;5012826;28;20220;-75
2024/01/10 00:08:34;;;;;;;9.57;8.68;;;3.40;99.90;;;;;;5014860;28;20215;-75
2024/01/10 00:11:01;;;;;;;11.27;10.10;;;3.40;99.90;;;;;;5015785;28;20235;-75
2024/01/10 00:13:28;;;;;;;10.75;9.70;;;3.40;99.90;;;;;;5016580;28;20661;-75
2024/01/10 00:15:58;;;;;;;9.70;8.80;;;3.40;99.90;;;;;;5012603;28;20220;-75
2024/01/10 00:18:25;;;;;;;11.27;10.18;;;3.40;99.90;;;;;;5018295;28;20250;-75
2024/01/10 00:20:54;;;;;;;10.35;9.32;;;3.40;99.90;;;;;;5013393;28;20860;-74
2024/01/10 00:23:21;;;;;;;11.25;10.15;;;3.30;99.90;;;;;;5014046;28;20314;-75
2024/01/10 00:25:48;;;;;;;14.93;10.60;;;3.30;99.90;;;;;;5014990;28;20219;-74
2024/01/10 00:28:16;;;;;;;11.98;10.43;;;3.30;99.90;;;;;;5017790;28;20373;-75
2024/01/10 00:30:43;;;;;;;10.85;9.75;;;3.30;99.90;;;;;;5014659;28;20223;-75
2024/01/10 00:33:12;;;;;;;12.82;11.18;;;3.30;99.90;;;;;;5015131;28;20230;-75
2024/01/10 00:35:39;;;;;;;12.35;11.05;;;3.30;99.90;;;;;;5012685;28;20306;-74
2024/01/10 00:38:06;;;;;;;14.10;11.98;;;3.30;99.90;;;;;;5015963;28;20200;-74
2024/01/10 00:40:35;;;;;;;11.57;10.20;;;3.30;99.90;;;;;;5016152;28;20219;-76
2024/01/10 00:43:03;;;;;;;12.32;9.98;;;3.20;99.90;;;;;;5014228;28;20745;-75
2024/01/10 00:45:31;;;;;;;10.90;9.85;;;3.20;99.90;;;;;;5014023;28;20591;-74
2024/01/10 00:47:58;;;;;;;10.57;9.63;;;3.30;99.90;;;;;;5013077;28;20886;-74
2024/01/10 00:50:27;;;;;;;13.57;11.90;;;3.20;99.90;;;;;;5015153;28;20231;-75
2024/01/10 00:52:54;;;;;;;13.18;11.27;;;3.10;99.90;;;;;;5012436;28;20203;-75
2024/01/10 00:55:21;;;;;;;13.13;11.77;;;3.10;99.90;;;;;;5014088;28;20211;-75
2024/01/10 00:57:48;;;;;;;17.45;14.50;;;3.00;99.90;;;;;;5014749;28;20287;-75
2024/01/10 01:00:16;;;;;;;17.35;13.82;;;3.00;99.90;;;;;;5013962;28;20227;-75
2024/01/10 01:02:44;;;;;;;15.30;13.13;;;3.00;99.90;;;;;;5013225;28;20204;-75
2024/01/10 01:05:11;;;;;;;15.00;12.55;;;3.00;99.90;;;;;;5013155;28;20307;-74
2024/01/10 01:07:39;;;;;;;13.93;12.43;;;3.00;99.90;;;;;;5012795;28;20200;-74
2024/01/10 01:10:08;;;;;;;14.93;12.60;;;3.00;99.90;;;;;;5013580;28;20223;-74
2024/01/10 01:12:35;;;;;;;13.63;11.25;;;3.00;99.90;;;;;;5012657;28;22022;-74
2024/01/10 01:15:02;;;;;;;14.63;12.93;;;3.10;99.90;;;;;;5013529;28;21188;-75
2024/01/10 01:17:29;;;;;;;14.63;13.13;;;3.10;99.90;;;;;;5010504;28;20694;-74
2024/01/10 01:19:56;;;;;;;14.32;12.82;;;3.00;99.90;;;;;;5013643;28;20219;-74
2024/01/10 01:22:23;;;;;;;15.15;13.65;;;3.00;99.90;;;;;;5015518;28;20215;-74
2024/01/10 01:24:53;;;;;;;13.82;12.30;;;3.00;99.90;;;;;;5013003;28;20262;-74
2024/01/10 01:27:20;;;;;;;13.77;12.38;;;2.90;99.90;;;;;;5011381;28;20207;-76
2024/01/10 01:29:47;;;;;;;14.50;13.00;;;2.90;99.90;;;;;;5011384;28;20231;-74
2024/01/10 01:32:14;;;;;;;15.05;13.63;;;2.80;99.90;;;;;;5017375;28;20918;-74
2024/01/10 01:34:41;;;;;;;16.35;14.65;;;2.80;99.90;;;;;;5012848;28;20235;-74
2024/01/10 01:37:08;;;;;;;15.52;13.88;;;2.70;99.90;;;;;;5017325;28;20200;-74
2024/01/10 01:39:35;;;;;;;16.85;15.15;;;2.70;99.90;;;;;;5014243;28;20223;-75
2024/01/10 01:42:04;;;;;;;15.02;13.63;;;2.70;99.90;;;;;;5014099;28;20203;-74
2024/01/10 01:44:32;;;;;;;14.50;13.10;;;2.70;99.90;;;;;;5011843;28;20706;-75
2024/01/10 01:46:59;;;;;;;16.48;14.80;;;2.70;99.90;;;;;;5011857;28;20720;-75
2024/01/10 01:49:27;;;;;;;18.00;16.10;;;2.70;99.90;;;;;;5010098;28;20234;-74
2024/01/10 01:51:54;;;;;;;15.95;13.98;;;2.60;99.90;;;;;;5016141;28;20250;-74
2024/01/10 01:54:21;;;;;;;15.90;14.30;;;2.60;99.90;;;;;;5014002;28;20222;-74
2024/01/10 01:56:49;;;;;;;13.88;12.48;;;2.60;99.90;;;;;;5010646;28;20271;-74
2024/01/10 01:59:18;;;;;;;13.15;11.82;;;2.70;99.90;;;;;;5015328;28;20674;-74
2024/01/10 02:01:45;;;;;;;13.40;12.10;;;2.60;99.90;;;;;;5012489;28;20220;-74
2024/01/10 02:04:12;;;;;;;15.18;13.68;;;2.60;99.90;;;;;;5014036;28;20231;-75
2024/01/10 02:06:39;;;;;;;14.63;13.13;;;2.60;99.90;;;;;;5013507;28;20352;-75
2024/01/10 02:09:08;;;;;;;14.25;12.90;;;2.60;99.90;;;;;;5011269;28;20738;-74
2024/01/10 02:11:35;;;;;;;13.82;12.50;;;2.60;99.90;;;;;;5015902;28;20297;-74
2024/01/10 02:14:02;;;;;;;14.82;13.43;;;2.70;99.90;;;;;;5014111;28;20223;-75
2024/01/10 02:16:31;;;;;;;14.15;12.70;;;2.70;99.90;;;;;;5014137;28;20289;-74
2024/01/10 02:18:58;;;;;;;15.43;13.82;;;2.70;99.90;;;;;;5010548;28;20211;-75
2024/01/10 02:21:25;;;;;;;13.80;12.45;;;2.70;99.90;;;;;;5011235;28;20211;-75
2024/01/10 02:23:52;;;;;;;13.80;12.45;;;2.60;99.90;;;;;;5016273;28;20219;-74
2024/01/10 02:26:21;;;;;;;14.88;13.43;;;2.60;99.90;;;;;;5014025;28;20219;-74
2024/01/10 02:28:48;;;;;;;14.32;12.93;;;2.50;99.90;;;;;;5020460;28;20199;-74
2024/01/10 02:31:15;;;;;;;15.30;13.77;;;2.50;99.90;;;;;;5016132;28;20311;-75
2024/01/10 02:33:42;;;;;;;13.65;12.35;;;2.50;99.90;;;;;;5014419;28;20235;-75
2024/01/10 02:36:09;;;;;;;15.63;14.10;;;2.50;99.90;;;;;;5015103;28;20260;-74
2024/01/10 02:38:36;;;;;;;14.45;12.90;;;2.50;99.90;;;;;;5020639;28;20211;-75
2024/01/10 02:41:03;;;;;;;15.68;13.90;;;2.50;99.90;;;;;;5016543;28;20224;-74
2024/01/10 02:43:31;;;;;;;14.35;12.95;;;2.40;99.90;;;;;;5018393;28;20721;-74
2024/01/10 02:45:59;;;;;;;14.70;13.30;;;2.50;99.90;;;;;;5013674;28;20238;-73
2024/01/10 02:48:26;;;;;;;15.60;13.98;;;2.40;99.90;;;;;;5017364;28;20218;-74
2024/01/10 02:50:54;;;;;;;17.08;15.27;;;2.40;99.90;;;;;;5017124;28;20235;-75
2024/01/10 02:53:21;;;;;;;14.95;13.45;;;2.30;99.90;;;;;;5016320;28;20227;-74
2024/01/10 02:55:49;;;;;;;15.50;13.90;;;2.30;99.90;;;;;;5015083;28;20223;-74
2024/01/10 02:58:16;;;;;;;15.27;13.82;;;2.30;99.90;;;;;;5017115;28;20215;-74
2024/01/10 03:00:45;;;;;;;14.73;13.20;;;2.20;99.90;;;;;;5011662;28;20234;-74
2024/01/10 03:03:12;;;;;;;14.52;13.07;;;2.20;99.90;;;;;;5014425;28;20231;-75
2024/01/10 03:05:39;;;;;;;17.95;13.77;;;2.20;99.90;;;;;;5013728;28;20307;-74
2024/01/10 03:08:07;;;;;;;15.38;13.77;;;2.20;99.90;;;;;;5017543;28;20802;-74
2024/01/10 03:10:34;;;;;;;15.30;13.80;;;2.20;99.90;;;;;;5014232;28;20287;-74
2024/01/10 03:13:01;;;;;;;15.20;13.73;;;2.20;99.90;;;;;;5018121;28;20231;-74
2024/01/10 03:15:28;;;;;;;15.35;13.80;;;2.20;99.90;;;;;;5015536;28;20231;-75
2024/01/10 03:17:57;;;;;;;15.68;13.68;;;2.20;99.90;;;;;;5014733;28;20206;-74
2024/01/10 03:20:24;;;;;;;14.20;12.77;;;2.20;99.90;;;;;;5015861;28;20599;-75
2024/01/10 03:22:51;;;;;;;15.27;13.68;;;2.20;99.90;;;;;;5018873;28;20223;-74
2024/01/10 03:25:18;;;;;;;15.05;13.45;;;2.20;99.90;;;;;;5016665;28;20228;-74
2024/01/10 03:27:45;;;;;;;15.20;13.70;;;2.20;99.90;;;;;;5015257;28;20218;-74
2024/01/10 03:30:12;;;;;;;15.98;14.38;;;2.10;99.90;;;;;;5016613;28;20878;-74
2024/01/10 03:32:39;;;;;;;14.95;13.55;;;2.10;99.90;;;;;;5016476;28;20674;-74
2024/01/10 03:35:09;;;;;;;14.75;13.18;;;2.10;99.90;;;;;;5015511;28;20825;-74
2024/01/10 03:37:36;;;;;;;15.15;13.65;;;2.10;99.90;;;;;;5015558;28;20207;-74
2024/01/10 03:40:04;;;;;;;16.13;14.43;;;2.10;99.90;;;;;;5012750;28;20223;-74
2024/01/10 03:42:31;;;;;;;15.60;14.02;;;2.10;99.90;;;;;;5014036;28;20291;-74
2024/01/10 03:44:58;;;;;;;16.05;14.45;;;2.10;99.90;;;;;;5015076;28;20227;-74
2024/01/10 03:47:25;;;;;;;16.58;14.88;;;2.10;99.90;;;;;;5014248;28;20206;-74
2024/01/10 03:49:52;;;;;;;15.32;13.82;;;2.10;99.90;;;;;;5014886;28;21075;-73
2024/01/10 03:52:20;;;;;;;15.57;13.98;;;2.10;99.90;;;;;;5017105;28;20234;-74
2024/01/10 03:54:47;;;;;;;14.15;12.73;;;2.10;99.90;;;;;;5011680;28;20219;-74
2024/01/10 03:57:14;;;;;;;15.70;14.07;;;2.20;99.90;;;;;;5016803;28;20205;-74
2024/01/10 03:59:41;;;;;;;15.63;14.05;;;2.20;99.90;;;;;;5015569;28;20223;-74
2024/01/10 04:02:08;;;;;;;15.20;13.70;;;2.20;99.90;;;;;;5013718;28;20195;-74
2024/01/10 04:04:38;;;;;;;16.15;14.45;;;2.20;99.90;;;;;;5015442;28;20230;-74
2024/01/10 04:07:05;;;;;;;14.27;12.98;;;2.30;99.90;;;;;;5014129;28;20319;-74
2024/01/10 04:09:34;;;;;;;15.73;14.10;;;2.30;99.90;;;;;;5012900;28;20231;-74
2024/01/10 04:12:01;;;;;;;15.57;13.82;;;2.30;99.90;;;;;;5011678;28;20219;-73
2024/01/10 04:14:28;;;;;;;14.88;13.40;;;2.20;99.90;;;;;;5011917;28;20231;-74
2024/01/10 04:16:55;;;;;;;15.05;13.48;;;2.20;99.90;;;;;;5017989;28;20301;-74
2024/01/10 04:19:22;;;;;;;16.45;14.75;;;2.20;99.90;;;;;;5012196;28;20298;-74
2024/01/10 04:21:49;;;;;;;16.30;14.68;;;2.20;99.90;;;;;;5016057;28;20200;-74
2024/01/10 04:24:16;;;;;;;16.10;14.50;;;2.20;99.90;;;;;;5013236;28;20224;-73
2024/01/10 04:26:44;;;;;;;15.80;14.20;;;2.20;99.90;;;;;;5018705;28;20208;-74
2024/01/10 04:29:12;;;;;;;15.90;14.20;;;2.20;99.90;;;;;;5013255;28;20204;-74
2024/01/10 04:31:39;;;;;;;14.50;13.10;;;2.20;99.90;;;;;;5014119;28;20207;-74
2024/01/10 04:34:06;;;;;;;14.55;13.15;;;2.20;99.90;;;;;;5012013;28;20633;-73
2024/01/10 04:36:33;;;;;;;14.15;12.77;;;2.20;99.90;;;;;;5016083;28;20204;-74
2024/01/10 04:39:00;;;;;;;13.15;11.90;;;2.20;99.90;;;;;;5017225;28;20199;-74
2024/01/10 04:41:27;;;;;;;14.80;13.30;;;2.20;99.90;;;;;;5015981;28;20216;-74
2024/01/10 04:43:57;;;;;;;13.70;12.25;;;2.20;99.90;;;;;;5015052;28;20241;-74
2024/01/10 04:46:24;;;;;;;14.57;13.10;;;2.10;99.90;;;;;;5010596;28;20224;-74
2024/01/10 04:48:51;;;;;;;14.77;13.25;;;2.10;99.90;;;;;;5017017;28;20554;-75
2024/01/10 04:51:18;;;;;;;15.10;13.60;;;2.10;99.90;;;;;;5007993;28;20235;-74
2024/01/10 04:53:45;;;;;;;14.63;13.25;;;2.10;99.90;;;;;;5015398;28;20240;-74
2024/01/10 04:56:12;;;;;;;15.55;13.88;;;2.10;99.90;;;;;;5009661;28;20774;-74
2024/01/10 04:58:39;;;;;;;12.93;11.63;;;2.10;99.90;;;;;;5012144;28;20218;-73
2024/01/10 05:01:07;;;;;;;13.63;12.23;;;2.10;99.90;;;;;;5010742;28;20831;-74
2024/01/10 05:03:34;;;;;;;13.88;12.57;;;2.10;99.90;;;;;;5015604;28;20228;-74
2024/01/10 05:06:01;;;;;;;13.60;12.20;;;2.10;99.90;;;;;;5010722;28;20231;-74
2024/01/10 05:08:28;;;;;;;13.70;12.48;;;2.10;99.90;;;;;;5014218;28;20689;-75
2024/01/10 05:10:55;;;;;;;13.48;12.18;;;2.10;99.90;;;;;;5014916;28;20230;-74
2024/01/10 05:13:22;;;;;;;13.27;12.05;;;2.10;99.90;;;;;;5014972;28;20219;-74
2024/01/10 05:15:49;;;;;;;15.32;13.73;;;2.10;99.90;;;;;;5016091;28;20227;-73
2024/01/10 05:18:19;;;;;;;14.38;12.98;;;2.10;99.90;;;;;;5012101;28;21033;-74
2024/01/10 05:20:46;;;;;;;13.70;12.30;;;2.10;99.90;;;;;;5016336;28;20220;-74
2024/01/10 05:23:13;;;;;;;14.60;13.10;;;2.10;99.90;;;;;;5018147;28;20219;-74
2024/01/10 05:25:40;;;;;;;14.98;13.52;;;2.10;99.90;;;;;;5013996;28;20218;-74
2024/01/10 05:28:08;;;;;;;13.73;12.32;;;2.10;99.90;;;;;;5013294;28;20745;-74
2024/01/10 05:30:36;;;;;;;14.25;12.88;;;2.10;99.90;;;;;;5009974;28;20212;-74
2024/01/10 05:33:03;;;;;;;14.20;12.88;;;2.10;99.90;;;;;;5017004;28;20301;-74
2024/01/10 05:35:31;;;;;;;14.38;12.88;;;2.10;99.90;;;;;;5016263;28;20252;-75
2024/01/10 05:37:58;;;;;;;14.23;12.82;;;2.10;99.90;;;;;;5013764;28;20733;-73
2024/01/10 05:40:25;;;;;;;13.32;12.00;;;2.10;99.90;;;;;;5013414;28;20234;-75
2024/01/10 05:42:52;;;;;;;13.73;12.43;;;2.10;99.90;;;;;;5014915;28;20203;-75
2024/01/10 05:45:19;;;;;;;13.48;12.18;;;2.10;99.90;;;;;;5009481;28;21052;-75
2024/01/10 05:47:48;;;;;;;14.32;12.70;;;2.00;99.90;;;;;;5014422;28;20195;-74
2024/01/10 05:50:15;;;;;;;14.95;13.18;;;2.00;99.90;;;;;;5014413;28;20302;-74
2024/01/10 05:52:43;;;;;;;14.55;13.00;;;2.00;99.90;;;;;;5014135;28;20219;-74
2024/01/10 05:55:11;;;;;;;14.13;12.82;;;2.00;99.90;;;;;;5011393;28;20212;-74
2024/01/10 05:57:38;;;;;;;14.13;12.73;;;2.00;99.90;;;;;;5012934;28;20199;-74
2024/01/10 06:00:09;;;;;;;13.95;12.55;;;2.00;99.90;;;;;;5014786;28;20219;-74
2024/01/10 06:02:38;;;;;;;15.88;14.27;;;2.00;99.90;;;;;;5016031;28;20249;-75
2024/01/10 06:05:07;;;;;;;14.57;12.95;;;2.00;99.90;;;;;;5012998;28;20315;-74
2024/01/10 06:07:34;;;;;;;15.60;13.98;;;2.00;99.90;;;;;;5012005;28;20200;-74
2024/01/10 06:10:02;;;;;;;15.13;13.63;;;2.00;99.90;;;;;;5015674;28;20219;-75
2024/01/10 06:12:30;;;;;;;14.73;13.23;;;2.10;99.90;;;;;;5015143;28;20219;-75
2024/01/10 06:14:57;;;;;;;15.73;14.05;;;2.10;99.90;;;;;;5012390;28;20222;-74
2024/01/10 06:17:24;;;;;;;13.48;12.13;;;2.10;99.90;;;;;;5010505;28;20203;-75
2024/01/10 06:19:51;;;;;;;14.98;13.48;;;2.10;99.90;;;;;;5012915;28;20901;-74
2024/01/10 06:22:24;;;;;;;15.13;13.63;;;2.00;99.90;;;;;;5014558;28;20195;-75
2024/01/10 06:24:51;;;;;;;14.88;13.38;;;2.00;99.90;;;;;;5014661;28;20305;-74
2024/01/10 06:27:20;;;;;;;16.55;14.75;;;2.00;99.90;;;;;;5012044;28;20206;-74
2024/01/10 06:29:47;;;;;;;14.77;13.38;;;2.00;99.90;;;;;;5009673;28;20235;-75
2024/01/10 06:32:15;;;;;;;15.55;13.95;;;2.00;99.90;;;;;;5014100;28;20215;-74
2024/01/10 06:34:42;;;;;;;16.00;14.38;;;2.00;99.90;;;;;;5014434;28;20367;-74
2024/01/10 06:37:09;;;;;;;14.68;13.23;;;1.90;99.90;;;;;;5014462;28;20207;-75
2024/01/10 06:39:36;;;;;;;14.93;13.40;;;1.90;99.90;;;;;;5011109;28;20212;-75
2024/01/10 06:42:05;;;;;;;14.82;13.18;;;1.90;99.90;;;;;;5012106;28;20292;-74
2024/01/10 06:44:34;;;;;;;15.40;13.85;;;1.90;99.90;;;;;;5009930;28;20231;-75
2024/01/10 06:47:01;;;;;;;14.93;13.32;;;1.90;99.90;;;;;;5010345;28;20298;-74
2024/01/10 06:49:28;;;;;;;15.60;14.00;;;1.90;99.90;;;;;;5013369;28;20227;-75
2024/01/10 06:51:55;;;;;;;16.92;15.15;;;1.90;99.90;;;;;;5014845;28;20212;-75
2024/01/10 06:54:22;;;;;;;16.83;15.02;;;1.90;99.90;;;;;;5010765;28;20954;-74
2024/01/10 06:56:49;;;;;;;16.65;14.95;;;1.90;99.90;;;;;;5012384;28;20671;-75
2024/01/10 06:59:17;;;;;;;17.10;15.32;;;1.90;99.90;;;;;;5013576;28;20203;-74
2024/01/10 07:01:45;;;;;;;17.40;15.45;;;1.90;99.90;;;;;;5012709;28;20207;-74
2024/01/10 07:04:12;;;;;;;14.98;13.48;;;1.90;99.90;;;;;;5007520;28;20228;-75
2024/01/10 07:06:39;;;;;;;16.77;15.00;;;1.90;99.90;;;;;;5013805;28;20254;-74
2024/01/10 07:09:06;;;;;;;19.77;16.30;;;1.90;99.90;;;;;;5011484;28;20215;-75
2024/01/10 07:11:33;;;;;;;15.52;14.02;;;1.90;99.90;;;;;;5014319;28;20721;-75
2024/01/10 07:14:00;;;;;;;16.23;14.63;;;1.90;99.90;;;;;;5014533;28;20234;-75
2024/01/10 07:16:28;;;;;;;14.32;12.90;;;1.90;99.90;;;;;;5014698;28;20234;-75
2024/01/10 07:18:56;;;;;;;15.63;14.05;;;1.90;99.90;;;;;;5016512;28;20204;-74
2024/01/10 07:21:23;;;;;;;16.23;14.52;;;1.90;99.90;;;;;;5015775;28;20230;-75
2024/01/10 07:23:50;;;;;;;14.13;12.80;;;2.00;99.90;;;;;;5017368;28;20219;-75
2024/01/10 07:26:17;;;;;;;15.65;14.10;;;2.00;99.90;;;;;;5015796;28;20231;-75
2024/01/10 07:28:44;;;;;;;15.25;13.65;;;2.00;99.90;;;;;;5016986;28;20218;-76
2024/01/10 07:31:12;;;;;;;15.30;13.70;;;2.00;99.90;;;;;;5015689;28;20219;-75
2024/01/10 07:33:39;;;;;;;14.48;13.07;;;2.00;99.90;;;;;;5017044;28;20219;-75
2024/01/10 07:36:08;;;;;;;15.32;13.80;;;2.00;99.90;;;;;;5010638;28;20226;-75
2024/01/10 07:38:35;;;;;;;15.05;13.45;;;2.10;99.90;;;;;;5011641;28;20213;-75
2024/01/10 07:41:02;;;;;;;16.45;14.85;;;2.10;99.90;;;;;;5010021;28;20797;-75
2024/01/10 07:43:29;;;;;;;14.38;12.98;;;2.10;99.90;;;;;;5012799;28;20227;-75
2024/01/10 07:45:57;;;;;;;15.25;13.75;;;2.20;99.90;;;;;;5013209;28;20219;-74
2024/01/10 07:48:24;;;;;;;14.73;13.20;;;2.20;99.90;;;;;;5015072;28;20206;-75
2024/01/10 07:50:51;;;;;;;14.50;12.95;;;2.20;99.90;;;;;;5013090;28;20230;-75
2024/01/10 07:53:20;;;;;;;14.77;13.27;;;2.20;99.90;;;;;;5010099;28;20877;-75
2024/01/10 07:55:47;;;;;;;15.45;13.95;;;2.30;99.90;;;;;;5012088;28;20230;-75
2024/01/10 07:58:14;;;;;;;14.75;13.35;;;2.30;99.90;;;;;;5012349;28;20200;-75
2024/01/10 08:00:41;;;;;;;14.73;13.20;;;2.40;99.90;;;;;;5013905;28;20223;-75
2024/01/10 08:03:10;;;;;;;14.43;12.98;;;2.40;99.90;;;;;;5013566;28;20226;-75
2024/01/10 08:05:37;;;;;;;13.68;12.38;;;2.50;99.90;;;;;;5011276;28;20224;-75
2024/01/10 08:08:05;;;;;;;14.65;13.25;;;2.50;99.90;;;;;;5015674;28;20204;-74
2024/01/10 08:10:33;;;;;;;14.88;13.43;;;2.60;99.90;;;;;;5013513;28;20220;-74
2024/01/10 08:13:00;;;;;;;14.52;13.13;;;2.60;99.90;;;;;;5014256;28;20314;-75
2024/01/10 08:15:30;;;;;;;14.57;13.07;;;2.80;99.90;;;;;;5011937;28;20433;-75
2024/01/10 08:17:57;;;;;;;15.82;14.23;;;2.80;99.90;;;;;;5013987;28;20195;-75
2024/01/10 08:20:24;;;;;;;14.68;13.25;;;3.00;99.90;;;;;;5010455;28;20226;-75
2024/01/10 08:22:51;;;;;;;16.02;14.10;;;3.10;99.90;;;;;;5011476;28;20204;-75
2024/01/10 08:25:18;;;;;;;17.38;15.48;;;3.30;99.90;;;;;;5012006;28;20234;-77
2024/01/10 08:27:48;;;;;;;18.85;16.98;;;3.80;99.90;;;;;;5012925;28;20295;-77
2024/01/10 08:30:15;;;;;;;17.35;15.65;;;4.50;99.90;;;;;;5011762;28;20805;-76
2024/01/10 08:32:42;;;;;;;17.23;15.52;;;5.00;99.90;;;;;;5009031;28;20216;-76
2024/01/10 08:35:09;;;;;;;17.42;15.73;;;5.00;99.90;;;;;;5012632;28;20736;-75
2024/01/10 08:37:37;;;;;;;18.50;15.98;;;5.10;99.90;;;;;;5008637;28;20310;-74
2024/01/10 08:40:09;;;;;;;15.70;14.20;;;5.30;99.90;;;;;;5010500;28;20287;-74
2024/01/10 08:42:37;;;;;;;16.77;14.88;;;5.80;99.90;;;;;;5012508;28;20555;-74
2024/01/10 08:45:07;;;;;;;15.95;14.45;;;6.40;99.90;;;;;;5014931;28;20318;-74
2024/01/10 08:47:35;;;;;;;15.40;13.77;;;7.00;99.90;;;;;;5006913;28;20213;-74
2024/01/10 08:50:04;;;;;;;16.55;14.80;;;7.30;99.90;;;;;;5010353;28;20228;-74
2024/01/10 08:52:32;;;;;;;15.85;14.20;;;7.70;99.90;;;;;;5011342;28;20211;-75
2024/01/10 08:55:01;;;;;;;15.35;13.85;;;8.30;99.90;;;;;;5010168;28;20231;-74
2024/01/10 08:57:29;;;;;;;15.90;14.30;;;8.70;99.90;;;;;;5010667;28;20206;-75
2024/01/10 08:59:56;;;;;;;16.85;15.15;;;9.00;99.90;;;;;;5010312;28;20216;-76
2024/01/10 09:02:27;;;;;;;16.30;14.65;;;9.10;99.90;;;;;;5012776;28;20192;-75
2024/01/10 09:04:54;;;;;;;15.15;13.65;;;8.80;99.90;;;;;;5009694;28;20232;-75
2024/01/10 09:07:21;;;;;;;15.98;14.40;;;8.40;99.90;;;;;;5010842;28;20231;-75
2024/01/10 09:09:48;;;;;;;15.55;13.95;;;8.10;99.90;;;;;;5013114;28;20231;-75
2024/01/10 09:12:15;;;;;;;14.55;13.15;;;8.00;99.90;;;;;;5010292;28;20296;-74
2024/01/10 09:14:42;;;;;;;15.43;13.85;;;8.10;99.90;;;;;;5011829;28;20227;-74
2024/01/10 09:17:09;;;;;;;16.08;14.38;;;8.30;99.90;;;;;;5013704;28;20199;-75
2024/01/10 09:19:38;;;;;;;15.05;13.50;;;8.70;99.90;;;;;;5012060;28;20235;-75
2024/01/10 09:22:05;;;;;;;17.67;14.35;;;9.20;99.90;;;;;;5011543;28;20207;-75
2024/01/10 09:24:35;;;;;;;14.68;13.18;;;10.00;99.90;;;;;;5011472;28;20235;-76
2024/01/10 09:27:02;;;;;;;14.32;12.82;;;10.70;99.90;;;;;;5011618;28;20200;-74
2024/01/10 09:29:31;;;;;;;13.85;12.45;;;12.00;99.90;;;;;;5007948;28;20231;-75
2024/01/10 09:31:58;;;;;;;14.00;12.63;;;13.30;99.90;;;;;;5007965;28;20204;-75
2024/01/10 09:34:25;;;;;;;13.32;12.02;;;14.70;99.90;;;;;;5008364;28;20748;-75
2024/01/10 09:36:53;;;;;;;12.70;11.40;;;16.00;99.90;;;;;;5010206;28;20265;-76
2024/01/10 09:39:20;;;;;;;11.75;10.65;;;16.50;99.90;;;;;;5008083;28;20230;-76
2024/01/10 09:41:50;;;;;;;12.95;11.07;;;16.60;99.90;;;;;;5012300;28;20216;-76
2024/01/10 09:44:18;;;;;;;12.65;10.68;;;16.60;99.90;;;;;;5011321;28;20223;-76
2024/01/10 09:46:50;;;;;;;11.88;10.77;;;17.10;99.90;;;;;;5009486;28;20208;-76
2024/01/10 09:49:18;;;;;;;11.82;10.63;;;17.30;99.90;;;;;;5013104;28;20902;-75
2024/01/10 09:51:48;;;;;;;11.57;10.45;;;17.60;99.90;;;;;;5009574;28;20225;-75
2024/01/10 09:54:19;;;;;;;12.10;10.93;;;17.60;99.90;;;;;;5006362;28;20245;-74
2024/01/10 09:56:46;;;;;;;13.35;11.63;;;17.60;99.90;;;;;;5007884;28;20199;-75
2024/01/10 09:59:13;;;;;;;11.30;10.20;;;17.40;99.90;;;;;;5010714;28;20211;-74
2024/01/10 10:01:41;;;;;;;12.45;11.02;;;17.00;99.90;;;;;;5008758;28;20218;-76
2024/01/10 10:04:10;;;;;;;12.18;10.52;;;16.30;99.90;;;;;;5011600;28;20721;-75
2024/01/10 10:06:37;;;;;;;13.38;10.48;;;15.40;99.90;;;;;;5009948;28;20690;-75
2024/01/10 10:09:04;;;;;;;10.68;9.57;;;14.60;99.90;;;;;;5011979;28;20207;-76
2024/01/10 10:11:33;;;;;;;10.80;9.05;;;13.90;99.90;;;;;;5013263;28;20697;-74
2024/01/10 10:14:15;;;;;;;9.55;8.65;;;12.90;99.90;;;;;;5007207;28;20230;-75
2024/01/10 10:16:42;;;;;;;10.32;9.32;;;12.00;99.90;;;;;;5007610;28;20299;-75
2024/01/10 10:19:11;;;;;;;10.02;9.02;;;11.50;99.90;;;;;;5009590;28;20211;-75
2024/01/10 10:21:38;;;;;;;9.93;9.02;;;11.00;99.90;;;;;;5008047;28;20226;-76
2024/01/10 10:24:07;;;;;;;11.18;10.00;;;10.60;99.90;;;;;;5008231;28;20505;-76
2024/01/10 10:26:36;;;;;;;10.02;9.02;;;10.40;99.90;;;;;;5006793;28;20225;-75
2024/01/10 10:29:04;;;;;;;11.95;9.25;;;10.20;99.90;;;;;;5007074;28;20696;-76
2024/01/10 10:31:32;;;;;;;10.00;8.98;;;10.10;99.90;;;;;;5007900;28;20219;-76
2024/01/10 10:34:02;;;;;;;9.35;8.52;;;10.00;99.90;;;;;;5009381;28;20224;-76
2024/01/10 10:36:31;;;;;;;13.00;9.07;;;10.20;99.90;;;;;;5006252;28;20286;-76
2024/01/10 10:39:01;;;;;;;9.40;8.60;;;10.40;99.90;;;;;;5005224;28;20313;-76
2024/01/10 10:41:32;;;;;;;10.57;8.55;;;10.40;99.90;;;;;;5011164;28;20310;-76
2024/01/10 10:44:01;;;;;;;9.25;8.35;;;10.50;99.90;;;;;;5008319;28;20226;-75
2024/01/10 10:46:28;;;;;;;12.00;8.82;;;10.60;99.90;;;;;;5010843;28;20228;-75
2024/01/10 10:49:00;;;;;;;9.73;8.80;;;10.60;99.90;;;;;;5009984;28;20710;-75
2024/01/10 10:51:34;;;;;;;12.02;9.05;;;10.60;99.90;;;;;;5013004;28;20231;-76
2024/01/10 10:54:03;;;;;;;9.15;8.30;;;10.20;99.90;;;;;;5014048;28;20223;-76
2024/01/10 10:56:34;;;;;;;11.93;9.27;;;10.10;99.90;;;;;;5009310;28;20227;-75
2024/01/10 10:59:04;;;;;;;9.88;8.30;;;10.20;99.90;;;;;;5012614;28;20203;-76
2024/01/10 11:01:34;;;;;;;8.90;8.05;;;10.50;99.90;;;;;;5013232;28;20328;-75
2024/01/10 11:04:01;;;;;;;8.70;7.80;;;10.70;99.90;;;;;;5010644;28;20807;-75
2024/01/10 11:06:29;;;;;;;9.82;8.35;;;10.60;99.90;;;;;;5011700;28;20575;-75
2024/01/10 11:09:01;;;;;;;10.10;9.10;;;10.80;99.90;;;;;;5015954;28;20558;-74
2024/01/10 11:11:38;;;;;;;10.18;9.18;;;11.00;99.90;;;;;;5014886;28;20243;-75
2024/01/10 11:14:22;;;;;;;9.27;8.32;;;11.30;99.90;;;;;;5012446;28;20219;-75
2024/01/10 11:17:18;;;;;;;9.10;8.20;;;11.30;99.90;;;;;;5010579;28;20223;-75
2024/01/10 11:20:16;;;;;;;8.65;7.85;;;11.40;99.90;;;;;;4997113;28;20230;-75
2024/01/10 11:23:09;;;;;;;9.50;8.50;;;11.10;99.90;;;;;;5009775;28;20208;-75
2024/01/10 11:25:37;;;;;;;8.88;8.07;;;11.10;99.90;;;;;;5010558;28;20230;-76
2024/01/10 11:28:05;;;;;;;8.57;7.68;;;11.40;99.90;;;;;;5001390;28;20214;-75
2024/01/10 11:30:37;;;;;;;11.35;8.52;;;11.50;99.90;;;;;;4997801;28;20231;-76
2024/01/10 11:33:20;;;;;;;9.18;8.27;;;11.40;99.90;;;;;;5000802;28;20219;-75
2024/01/10 11:36:13;;;;;;;9.27;8.30;;;11.50;99.90;;;;;;5013111;28;20314;-75
2024/01/10 11:38:48;;;;;;;10.73;9.25;;;11.40;99.90;;;;;;5009314;28;20215;-74
2024/01/10 11:41:22;;;;;;;8.73;7.93;;;11.40;99.90;;;;;;5011034;28;20223;-75
2024/01/10 11:44:23;;;;;;;8.93;8.02;;;11.70;99.90;;;;;;5014119;28;20335;-75
2024/01/10 11:46:55;;;;;;;9.63;8.63;;;11.80;99.90;;;;;;5010843;28;20219;-75
2024/01/10 11:49:24;;;;;;;8.48;7.68;;;11.70;99.90;;;;;;5011783;28;20298;-75
2024/01/10 11:51:53;;;;;;;10.40;9.27;;;11.70;99.90;;;;;;5010865;28;20220;-75
2024/01/10 11:54:41;;;;;;;9.40;8.50;;;11.80;99.90;;;;;;5013343;28;20302;-75
2024/01/10 11:57:11;;;;;;;9.32;8.13;;;11.90;99.90;;;;;;5011051;28;20302;-75
2024/01/10 11:59:39;;;;;;;9.15;8.27;;;11.70;99.90;;;;;;5013706;28;20641;-76
2024/01/10 12:02:08;;;;;;;9.35;8.45;;;11.40;99.90;;;;;;5015519;28;20212;-75
2024/01/10 12:04:35;;;;;;;8.70;7.90;;;11.10;99.90;;;;;;5009590;28;20224;-75
2024/01/10 12:07:04;;;;;;;9.63;8.00;;;10.90;99.90;;;;;;5007439;28;20232;-76
2024/01/10 12:09:32;;;;;;;8.60;7.80;;;10.40;99.90;;;;;;5008358;28;20211;-76
2024/01/10 12:11:59;;;;;;;8.48;7.68;;;10.20;99.90;;;;;;5007721;28;20316;-75
2024/01/10 12:14:27;;;;;;;8.70;7.85;;;9.90;99.90;;;;;;5005201;28;20213;-76
2024/01/10 12:16:54;;;;;;;8.77;7.63;;;9.70;99.90;;;;;;5014218;28;20219;-75
2024/01/10 12:19:22;;;;;;;9.02;7.28;;;9.70;99.90;;;;;;5010716;28;20211;-75
2024/01/10 12:21:50;;;;;;;8.35;7.55;;;9.60;99.90;;;;;;5008625;28;20223;-75
2024/01/10 12:24:17;;;;;;;8.48;7.68;;;9.50;99.90;;;;;;5014056;28;20211;-74
2024/01/10 12:26:45;;;;;;;8.20;7.47;;;9.50;99.90;;;;;;5016942;28;20305;-75
2024/01/10 12:29:13;;;;;;;8.05;7.25;;;9.60;99.90;;;;;;5017126;28;20664;-76
2024/01/10 12:31:40;;;;;;;9.68;8.68;;;9.80;99.90;;;;;;5015623;28;20234;-75
2024/01/10 12:34:10;;;;;;;9.32;7.85;;;9.80;99.90;;;;;;5004612;28;20223;-75
2024/01/10 12:36:38;;;;;;;9.00;7.90;;;9.80;99.90;;;;;;5005746;28;20215;-75
2024/01/10 12:39:07;;;;;;;8.38;7.53;;;9.80;99.90;;;;;;5008955;28;20203;-76
2024/01/10 12:41:35;;;;;;;9.63;8.25;;;9.70;99.90;;;;;;5008251;28;20266;-76
2024/01/10 12:44:03;;;;;;;8.50;7.70;;;9.60;99.90;;;;;;5008653;28;20623;-76